sensor_id;sensor_type;location;lat;lon;timestamp;pressure;altitude;pressure_sealevel;temperature;humidity
25947;BME280;13745;51.470;9.894;2023-03-24T00:01:50;98109.09;;;16.81;62.55
25947;BME280;13745;51.470;9.894;2023-03-24T00:04:36;98105.44;;;16.83;62.78
25947;BME280;13745;51.470;9.894;2023-03-24T00:07:25;98101.63;;;16.89;62.66
25947;BME280;13745;51.470;9.894;2023-03-24T00:10:14;98116.22;;;16.93;63.02
25947;BME280;13745;51.470;9.894;2023-03-24T00:13:01;98110.88;;;16.95;63.24
25947;BME280;13745;51.470;9.894;2023-03-24T00:15:46;98117.72;;;16.97;63.30
25947;BME280;13745;51.470;9.894;2023-03-24T00:18:31;98112.38;;;16.99;63.60
25947;BME280;13745;51.470;9.894;2023-03-24T00:21:19;98109.88;;;16.97;63.89
25947;BME280;13745;51.470;9.894;2023-03-24T00:24:06;98112.47;;;16.97;63.64
25947;BME280;13745;51.470;9.894;2023-03-24T00:26:51;98106.41;;;16.97;64.10
25947;BME280;13745;51.470;9.894;2023-03-24T00:29:40;98109.88;;;16.97;64.13
25947;BME280;13745;51.470;9.894;2023-03-24T00:32:25;98101.19;;;16.97;64.42
25947;BME280;13745;51.470;9.894;2023-03-24T00:35:14;98103.84;;;16.95;64.72
25947;BME280;13745;51.470;9.894;2023-03-24T00:38:02;98108.25;;;16.95;64.86
25947;BME280;13745;51.470;9.894;2023-03-24T00:40:47;98097.88;;;16.93;65.09
25947;BME280;13745;51.470;9.894;2023-03-24T00:43:33;98093.59;;;16.92;65.30
25947;BME280;13745;51.470;9.894;2023-03-24T00:46:18;98098.72;;;16.94;65.20
25947;BME280;13745;51.470;9.894;2023-03-24T00:49:12;98093.47;;;16.94;65.27
25947;BME280;13745;51.470;9.894;2023-03-24T00:51:58;98085.63;;;16.94;65.40
25947;BME280;13745;51.470;9.894;2023-03-24T00:54:46;98083.84;;;16.94;65.29
25947;BME280;13745;51.470;9.894;2023-03-24T00:57:31;98069.81;;;16.95;65.23
25947;BME280;13745;51.470;9.894;2023-03-24T01:00:20;98069.75;;;16.97;65.35
25947;BME280;13745;51.470;9.894;2023-03-24T01:03:07;98061.81;;;16.98;65.16
25947;BME280;13745;51.470;9.894;2023-03-24T01:05:53;98053.84;;;17.00;65.23
25947;BME280;13745;51.470;9.894;2023-03-24T01:08:40;98057.09;;;17.03;65.29
25947;BME280;13745;51.470;9.894;2023-03-24T01:11:27;98052.72;;;17.04;65.14
25947;BME280;13745;51.470;9.894;2023-03-24T01:14:13;98043.00;;;17.06;64.63
25947;BME280;13745;51.470;9.894;2023-03-24T01:16:59;98035.06;;;17.07;65.04
25947;BME280;13745;51.470;9.894;2023-03-24T01:19:44;98034.97;;;17.09;65.09
25947;BME280;13745;51.470;9.894;2023-03-24T01:22:29;98041.03;;;17.09;65.06
25947;BME280;13745;51.470;9.894;2023-03-24T01:25:16;98019.25;;;17.09;64.91
25947;BME280;13745;51.470;9.894;2023-03-24T01:28:03;98011.19;;;17.12;64.83
25947;BME280;13745;51.470;9.894;2023-03-24T01:30:49;98015.53;;;17.13;64.86
25947;BME280;13745;51.470;9.894;2023-03-24T01:33:35;98010.09;;;17.16;64.62
25947;BME280;13745;51.470;9.894;2023-03-24T01:36:20;97991.75;;;17.16;64.77
25947;BME280;13745;51.470;9.894;2023-03-24T01:39:05;97996.03;;;17.17;64.83
25947;BME280;13745;51.470;9.894;2023-03-24T01:41:50;97990.81;;;17.17;64.79
25947;BME280;13745;51.470;9.894;2023-03-24T01:44:37;97979.41;;;17.18;64.75
25947;BME280;13745;51.470;9.894;2023-03-24T01:47:22;97982.75;;;17.20;64.65
25947;BME280;13745;51.470;9.894;2023-03-24T01:50:08;97980.91;;;17.22;64.87
25947;BME280;13745;51.470;9.894;2023-03-24T01:52:53;97969.47;;;17.23;64.51
25947;BME280;13745;51.470;9.894;2023-03-24T01:55:39;97967.81;;;17.22;64.79
25947;BME280;13745;51.470;9.894;2023-03-24T01:58:27;97972.09;;;17.23;64.94
25947;BME280;13745;51.470;9.894;2023-03-24T02:01:28;97977.22;;;17.25;64.79
25947;BME280;13745;51.470;9.894;2023-03-24T02:04:22;97961.63;;;17.23;64.86
25947;BME280;13745;51.470;9.894;2023-03-24T02:07:11;97953.03;;;17.21;64.82
25947;BME280;13745;51.470;9.894;2023-03-24T02:09:59;97949.66;;;17.19;64.93
25947;BME280;13745;51.470;9.894;2023-03-24T02:12:45;97957.59;;;17.18;65.10
25947;BME280;13745;51.470;9.894;2023-03-24T02:15:33;97960.31;;;17.16;65.25
25947;BME280;13745;51.470;9.894;2023-03-24T02:18:27;97953.41;;;17.15;65.25
25947;BME280;13745;51.470;9.894;2023-03-24T02:21:37;97945.72;;;17.12;65.58
25947;BME280;13745;51.470;9.894;2023-03-24T02:25:01;97939.66;;;17.11;65.29
25947;BME280;13745;51.470;9.894;2023-03-24T02:28:07;97936.59;;;17.05;65.58
25947;BME280;13745;51.470;9.894;2023-03-24T02:38:02;97946.63;;;16.98;65.99
25947;BME280;13745;51.470;9.894;2023-03-24T02:40:57;97926.78;;;16.94;65.95
25947;BME280;13745;51.470;9.894;2023-03-24T02:43:51;97935.56;;;16.93;66.04
25947;BME280;13745;51.470;9.894;2023-03-24T02:46:44;97938.28;;;16.92;66.17
25947;BME280;13745;51.470;9.894;2023-03-24T02:49:32;97937.34;;;16.93;66.10
25947;BME280;13745;51.470;9.894;2023-03-24T02:52:24;97926.97;;;16.91;66.39
25947;BME280;13745;51.470;9.894;2023-03-24T02:55:19;97917.34;;;16.92;66.34
25947;BME280;13745;51.470;9.894;2023-03-24T02:58:10;97913.16;;;16.89;66.62
25947;BME280;13745;51.470;9.894;2023-03-24T03:01:06;97909.72;;;16.89;66.36
25947;BME280;13745;51.470;9.894;2023-03-24T03:04:30;97908.94;;;16.87;66.55
25947;BME280;13745;51.470;9.894;2023-03-24T03:07:20;97902.13;;;16.84;66.80
25947;BME280;13745;51.470;9.894;2023-03-24T03:10:10;97899.63;;;16.82;67.02
25947;BME280;13745;51.470;9.894;2023-03-24T03:13:01;97897.00;;;16.82;67.04
25947;BME280;13745;51.470;9.894;2023-03-24T03:15:52;97892.81;;;16.80;66.94
25947;BME280;13745;51.470;9.894;2023-03-24T03:18:40;97888.47;;;16.79;67.09
25947;BME280;13745;51.470;9.894;2023-03-24T03:21:30;97881.56;;;16.78;67.22
25947;BME280;13745;51.470;9.894;2023-03-24T03:24:20;97877.38;;;16.75;67.26
25947;BME280;13745;51.470;9.894;2023-03-24T03:27:10;97868.84;;;16.86;66.74
25947;BME280;13745;51.470;9.894;2023-03-24T03:30:00;97875.03;;;16.71;67.23
25947;BME280;13745;51.470;9.894;2023-03-24T03:32:53;97861.38;;;16.66;67.61
25947;BME280;13745;51.470;9.894;2023-03-24T03:35:43;97857.16;;;16.63;67.65
25947;BME280;13745;51.470;9.894;2023-03-24T03:38:41;97843.34;;;16.61;67.89
25947;BME280;13745;51.470;9.894;2023-03-24T03:41:29;97838.94;;;16.62;67.84
25947;BME280;13745;51.470;9.894;2023-03-24T03:44:15;97836.44;;;16.60;67.76
25947;BME280;13745;51.470;9.894;2023-03-24T03:47:00;97832.13;;;16.59;68.20
25947;BME280;13745;51.470;9.894;2023-03-24T03:49:56;97836.53;;;16.58;67.88
25947;BME280;13745;51.470;9.894;2023-03-24T03:52:42;97828.69;;;16.58;68.01
25947;BME280;13745;51.470;9.894;2023-03-24T03:55:28;97824.41;;;16.57;68.43
25947;BME280;13745;51.470;9.894;2023-03-24T03:58:13;97823.56;;;16.57;68.24
25947;BME280;13745;51.470;9.894;2023-03-24T04:01:10;97819.34;;;16.54;68.27
25947;BME280;13745;51.470;9.894;2023-03-24T04:04:28;97819.53;;;16.51;68.36
25947;BME280;13745;51.470;9.894;2023-03-24T04:07:54;97823.81;;;16.52;68.40
25947;BME280;13745;51.470;9.894;2023-03-24T04:14:50;97805.81;;;16.48;68.60
25947;BME280;13745;51.470;9.894;2023-03-24T04:18:19;97806.75;;;16.47;68.70
25947;BME280;13745;51.470;9.894;2023-03-24T04:21:33;97811.22;;;16.45;68.60
25947;BME280;13745;51.470;9.894;2023-03-24T04:24:40;97805.06;;;16.46;68.77
25947;BME280;13745;51.470;9.894;2023-03-24T04:27:34;97801.53;;;16.47;68.60
25947;BME280;13745;51.470;9.894;2023-03-24T04:30:29;97791.13;;;16.45;68.83
25947;BME280;13745;51.470;9.894;2023-03-24T04:33:18;97802.28;;;16.49;68.86
25947;BME280;13745;51.470;9.894;2023-03-24T04:36:13;97802.44;;;16.46;68.80
25947;BME280;13745;51.470;9.894;2023-03-24T04:39:35;97800.75;;;16.45;69.00
25947;BME280;13745;51.470;9.894;2023-03-24T04:42:24;97786.09;;;16.56;68.22
25947;BME280;13745;51.470;9.894;2023-03-24T04:45:12;97788.63;;;16.44;68.40
25947;BME280;13745;51.470;9.894;2023-03-24T04:48:15;97782.75;;;16.40;68.85
25947;BME280;13745;51.470;9.894;2023-03-24T04:51:19;97786.94;;;16.43;68.93
25947;BME280;13745;51.470;9.894;2023-03-24T04:54:22;97779.38;;;16.38;68.93
25947;BME280;13745;51.470;9.894;2023-03-24T04:57:13;97774.25;;;16.37;69.34
25947;BME280;13745;51.470;9.894;2023-03-24T05:00:02;97773.41;;;16.36;69.25
25947;BME280;13745;51.470;9.894;2023-03-24T05:02:52;97772.69;;;16.34;69.76
25947;BME280;13745;51.470;9.894;2023-03-24T05:05:44;97771.00;;;16.33;69.64
25947;BME280;13745;51.470;9.894;2023-03-24T05:08:30;97767.66;;;16.31;69.57
25947;BME280;13745;51.470;9.894;2023-03-24T05:11:15;97768.38;;;16.33;69.94
25947;BME280;13745;51.470;9.894;2023-03-24T05:14:09;97768.28;;;16.35;69.67
25947;BME280;13745;51.470;9.894;2023-03-24T05:16:55;97764.00;;;16.34;69.72
25947;BME280;13745;51.470;9.894;2023-03-24T05:19:41;97761.38;;;16.34;69.75
25947;BME280;13745;51.470;9.894;2023-03-24T05:22:26;97760.44;;;16.35;69.90
25947;BME280;13745;51.470;9.894;2023-03-24T05:25:11;97751.75;;;16.34;70.30
25947;BME280;13745;51.470;9.894;2023-03-24T05:27:56;97749.03;;;16.36;70.13
25947;BME280;13745;51.470;9.894;2023-03-24T05:30:44;97734.28;;;16.35;70.30
25947;BME280;13745;51.470;9.894;2023-03-24T05:33:50;97731.56;;;16.36;69.91
25947;BME280;13745;51.470;9.894;2023-03-24T05:36:37;97752.50;;;16.36;69.95
25947;BME280;13745;51.470;9.894;2023-03-24T05:39:24;97750.72;;;16.37;69.95
25947;BME280;13745;51.470;9.894;2023-03-24T05:42:33;97750.59;;;16.38;69.83
25947;BME280;13745;51.470;9.894;2023-03-24T05:45:21;97754.94;;;16.39;70.07
25947;BME280;13745;51.470;9.894;2023-03-24T05:48:09;97754.09;;;16.39;70.03
25947;BME280;13745;51.470;9.894;2023-03-24T05:51:13;97749.59;;;16.41;70.07
25947;BME280;13745;51.470;9.894;2023-03-24T05:53:58;97749.50;;;16.42;70.07
25947;BME280;13745;51.470;9.894;2023-03-24T05:56:56;97753.69;;;16.45;69.92
25947;BME280;13745;51.470;9.894;2023-03-24T05:59:49;97763.97;;;16.48;70.25
25947;BME280;13745;51.470;9.894;2023-03-24T06:02:59;97768.25;;;16.49;69.86
25947;BME280;13745;51.470;9.894;2023-03-24T06:05:52;97763.03;;;16.49;70.04
25947;BME280;13745;51.470;9.894;2023-03-24T06:08:37;97782.91;;;16.51;69.98
25947;BME280;13745;51.470;9.894;2023-03-24T06:11:21;97791.50;;;16.53;69.78
25947;BME280;13745;51.470;9.894;2023-03-24T06:14:14;97766.00;;;16.57;69.96
25947;BME280;13745;51.470;9.894;2023-03-24T06:17:13;97772.06;;;16.57;69.93
25947;BME280;13745;51.470;9.894;2023-03-24T06:20:00;97767.69;;;16.58;69.74
25947;BME280;13745;51.470;9.894;2023-03-24T06:23:08;97757.94;;;16.60;70.00
25947;BME280;13745;51.470;9.894;2023-03-24T06:26:12;97761.22;;;16.64;69.72
25947;BME280;13745;51.470;9.894;2023-03-24T06:29:09;97763.53;;;16.68;69.75
25947;BME280;13745;51.470;9.894;2023-03-24T06:31:55;97761.50;;;16.73;69.58
25947;BME280;13745;51.470;9.894;2023-03-24T06:34:41;97759.34;;;16.80;69.74
25947;BME280;13745;51.470;9.894;2023-03-24T06:37:49;97762.19;;;16.90;69.35
25947;BME280;13745;51.470;9.894;2023-03-24T06:40:36;97763.38;;;16.98;69.23
25947;BME280;13745;51.470;9.894;2023-03-24T06:43:22;97769.88;;;17.05;69.28
25947;BME280;13745;51.470;9.894;2023-03-24T06:46:10;97759.81;;;17.12;68.87
25947;BME280;13745;51.470;9.894;2023-03-24T06:48:59;97767.38;;;17.17;68.71
25947;BME280;13745;51.470;9.894;2023-03-24T06:51:44;97772.13;;;17.24;68.63
25947;BME280;13745;51.470;9.894;2023-03-24T06:54:31;97769.94;;;17.31;68.43
25947;BME280;13745;51.470;9.894;2023-03-24T06:57:19;97765.22;;;17.36;68.27
25947;BME280;13745;51.470;9.894;2023-03-24T07:00:23;97767.31;;;17.44;68.14
25947;BME280;13745;51.470;9.894;2023-03-24T07:03:20;97778.34;;;17.49;67.76
25947;BME280;13745;51.470;9.894;2023-03-24T07:06:26;97782.53;;;17.51;67.53
25947;BME280;13745;51.470;9.894;2023-03-24T07:09:15;97785.78;;;17.55;67.36
25947;BME280;13745;51.470;9.894;2023-03-24T07:12:02;97802.13;;;17.58;67.28
25947;BME280;13745;51.470;9.894;2023-03-24T07:14:48;97796.78;;;17.60;67.22
25947;BME280;13745;51.470;9.894;2023-03-24T07:17:33;97799.00;;;17.66;67.14
25947;BME280;13745;51.470;9.894;2023-03-24T07:20:44;97799.72;;;17.68;66.99
25947;BME280;13745;51.470;9.894;2023-03-24T07:23:31;97818.06;;;17.68;67.13
25947;BME280;13745;51.470;9.894;2023-03-24T07:26:37;97812.66;;;17.71;67.02
25947;BME280;13745;51.470;9.894;2023-03-24T07:29:29;97827.22;;;17.75;67.10
25947;BME280;13745;51.470;9.894;2023-03-24T07:32:28;97857.22;;;17.71;67.49
25947;BME280;13745;51.470;9.894;2023-03-24T07:35:17;97857.22;;;17.71;67.29
25947;BME280;13745;51.470;9.894;2023-03-24T07:38:03;97848.56;;;17.69;67.40
25947;BME280;13745;51.470;9.894;2023-03-24T07:40:48;97854.88;;;17.66;67.48
25947;BME280;13745;51.470;9.894;2023-03-24T07:43:33;97865.56;;;17.63;67.50
25947;BME280;13745;51.470;9.894;2023-03-24T07:46:37;97891.84;;;17.62;67.25
25947;BME280;13745;51.470;9.894;2023-03-24T07:49:23;97872.16;;;17.56;67.28
25947;BME280;13745;51.470;9.894;2023-03-24T07:52:19;97864.28;;;17.56;67.06
25947;BME280;13745;51.470;9.894;2023-03-24T07:55:09;97877.28;;;17.58;67.13
25947;BME280;13745;51.470;9.894;2023-03-24T07:58:07;97870.88;;;17.62;67.03
25947;BME280;13745;51.470;9.894;2023-03-24T08:00:54;97854.97;;;17.65;66.98
25947;BME280;13745;51.470;9.894;2023-03-24T08:03:46;97852.91;;;17.70;66.98
25947;BME280;13745;51.470;9.894;2023-03-24T08:06:33;97856.06;;;17.75;66.83
25947;BME280;13745;51.470;9.894;2023-03-24T08:09:18;97870.44;;;17.82;66.80
25947;BME280;13745;51.470;9.894;2023-03-24T08:12:06;97877.69;;;17.91;66.74
25947;BME280;13745;51.470;9.894;2023-03-24T08:14:51;97867.75;;;17.96;66.46
25947;BME280;13745;51.470;9.894;2023-03-24T08:17:37;97881.16;;;18.05;66.05
25947;BME280;13745;51.470;9.894;2023-03-24T08:20:22;97890.38;;;18.10;65.90
25947;BME280;13745;51.470;9.894;2023-03-24T08:23:11;97899.41;;;18.19;65.85
25947;BME280;13745;51.470;9.894;2023-03-24T08:25:56;97902.03;;;18.32;65.45
25947;BME280;13745;51.470;9.894;2023-03-24T08:28:41;97899.22;;;18.47;65.46
25947;BME280;13745;51.470;9.894;2023-03-24T08:31:30;97900.25;;;18.58;65.42
25947;BME280;13745;51.470;9.894;2023-03-24T08:34:16;97907.38;;;18.68;65.18
25947;BME280;13745;51.470;9.894;2023-03-24T08:37:02;97912.63;;;18.81;65.06
25947;BME280;13745;51.470;9.894;2023-03-24T08:39:48;97904.09;;;18.90;65.09
25947;BME280;13745;51.470;9.894;2023-03-24T08:42:34;97916.34;;;19.02;64.92
25947;BME280;13745;51.470;9.894;2023-03-24T08:45:21;97936.91;;;19.21;64.54
25947;BME280;13745;51.470;9.894;2023-03-24T08:48:07;97938.06;;;19.41;63.72
25947;BME280;13745;51.470;9.894;2023-03-24T08:50:53;97946.00;;;19.65;63.52
25947;BME280;13745;51.470;9.894;2023-03-24T08:53:38;97944.63;;;19.83;62.31
25947;BME280;13745;51.470;9.894;2023-03-24T08:56:25;97948.75;;;19.99;61.93
25947;BME280;13745;51.470;9.894;2023-03-24T08:59:10;97924.00;;;20.01;60.67
25947;BME280;13745;51.470;9.894;2023-03-24T09:01:56;97934.84;;;20.20;60.52
25947;BME280;13745;51.470;9.894;2023-03-24T09:04:41;97929.03;;;20.84;59.31
25947;BME280;13745;51.470;9.894;2023-03-24T09:07:25;97932.25;;;20.99;57.99
25947;BME280;13745;51.470;9.894;2023-03-24T09:10:12;97940.19;;;20.88;57.05
25947;BME280;13745;51.470;9.894;2023-03-24T09:12:59;97945.31;;;20.67;57.03
25947;BME280;13745;51.470;9.894;2023-03-24T09:15:45;97951.03;;;20.50;57.80
25947;BME280;13745;51.470;9.894;2023-03-24T09:18:31;97967.97;;;20.34;57.79
25947;BME280;13745;51.470;9.894;2023-03-24T09:21:16;97961.47;;;20.16;56.90
25947;BME280;13745;51.470;9.894;2023-03-24T09:24:02;97963.69;;;19.98;56.30
25947;BME280;13745;51.470;9.894;2023-03-24T09:26:47;97952.88;;;19.79;56.13
25947;BME280;13745;51.470;9.894;2023-03-24T09:29:33;97960.22;;;19.62;55.92
25947;BME280;13745;51.470;9.894;2023-03-24T09:32:18;97968.00;;;19.51;55.29
25947;BME280;13745;51.470;9.894;2023-03-24T09:35:05;97954.06;;;19.38;54.57
25947;BME280;13745;51.470;9.894;2023-03-24T09:37:51;97940.84;;;19.27;53.97
25947;BME280;13745;51.470;9.894;2023-03-24T09:40:38;97951.06;;;19.19;53.94
25947;BME280;13745;51.470;9.894;2023-03-24T09:43:26;97947.28;;;19.23;54.74
25947;BME280;13745;51.470;9.894;2023-03-24T09:46:25;97946.63;;;19.56;54.92
25947;BME280;13745;51.470;9.894;2023-03-24T09:49:14;97937.97;;;20.37;55.15
25947;BME280;13745;51.470;9.894;2023-03-24T09:52:03;97940.41;;;20.85;53.75
25947;BME280;13745;51.470;9.894;2023-03-24T09:54:52;97931.41;;;21.32;53.75
25947;BME280;13745;51.470;9.894;2023-03-24T09:57:39;97923.25;;;21.67;52.96
25947;BME280;13745;51.470;9.894;2023-03-24T10:00:28;97941.72;;;21.67;52.44
25947;BME280;13745;51.470;9.894;2023-03-24T10:03:18;97956.03;;;21.53;52.09
25947;BME280;13745;51.470;9.894;2023-03-24T10:06:08;97963.47;;;21.26;52.39
25947;BME280;13745;51.470;9.894;2023-03-24T10:09:06;97969.28;;;20.97;53.07
25947;BME280;13745;51.470;9.894;2023-03-24T10:12:15;97966.03;;;20.71;53.55
25947;BME280;13745;51.470;9.894;2023-03-24T10:15:13;97968.88;;;20.46;53.54
25947;BME280;13745;51.470;9.894;2023-03-24T10:18:01;97975.97;;;20.22;53.79
25947;BME280;13745;51.470;9.894;2023-03-24T10:20:54;97990.34;;;19.93;54.26
25947;BME280;13745;51.470;9.894;2023-03-24T10:23:45;97981.53;;;19.71;54.77
25947;BME280;13745;51.470;9.894;2023-03-24T10:26:39;97979.34;;;19.52;54.83
25947;BME280;13745;51.470;9.894;2023-03-24T10:29:29;97990.88;;;19.38;55.42
25947;BME280;13745;51.470;9.894;2023-03-24T10:32:18;97984.81;;;19.25;55.46
25947;BME280;13745;51.470;9.894;2023-03-24T10:35:06;97989.75;;;19.17;55.59
25947;BME280;13745;51.470;9.894;2023-03-24T10:37:57;97983.56;;;19.18;55.74
25947;BME280;13745;51.470;9.894;2023-03-24T10:40:44;97991.31;;;19.19;55.70
25947;BME280;13745;51.470;9.894;2023-03-24T10:43:29;97986.28;;;19.16;56.21
25947;BME280;13745;51.470;9.894;2023-03-24T10:46:18;97979.69;;;19.11;55.59
25947;BME280;13745;51.470;9.894;2023-03-24T10:49:07;97976.66;;;19.04;55.84
25947;BME280;13745;51.470;9.894;2023-03-24T10:51:59;97977.81;;;19.13;55.98
25947;BME280;13745;51.470;9.894;2023-03-24T10:54:54;97967.66;;;19.32;55.61
25947;BME280;13745;51.470;9.894;2023-03-24T10:57:41;97967.72;;;19.43;55.07
25947;BME280;13745;51.470;9.894;2023-03-24T11:00:29;97963.69;;;19.50;54.59
25947;BME280;13745;51.470;9.894;2023-03-24T11:03:16;97968.94;;;19.50;54.46
25947;BME280;13745;51.470;9.894;2023-03-24T11:06:06;97966.50;;;19.60;54.45
25947;BME280;13745;51.470;9.894;2023-03-24T11:09:07;97975.44;;;19.70;54.12
25947;BME280;13745;51.470;9.894;2023-03-24T11:11:54;97972.59;;;19.84;54.01
25947;BME280;13745;51.470;9.894;2023-03-24T11:14:43;97959.28;;;19.99;53.70
25947;BME280;13745;51.470;9.894;2023-03-24T11:17:29;97964.47;;;20.11;53.67
25947;BME280;13745;51.470;9.894;2023-03-24T11:20:16;97965.31;;;20.12;53.66
25947;BME280;13745;51.470;9.894;2023-03-24T11:23:05;97954.41;;;20.16;53.70
25947;BME280;13745;51.470;9.894;2023-03-24T11:26:01;97952.44;;;20.42;53.30
25947;BME280;13745;51.470;9.894;2023-03-24T11:28:50;97960.16;;;21.01;52.64
25947;BME280;13745;51.470;9.894;2023-03-24T11:31:37;97944.09;;;21.16;51.53
25947;BME280;13745;51.470;9.894;2023-03-24T11:34:24;97954.19;;;21.11;52.03
25947;BME280;13745;51.470;9.894;2023-03-24T11:37:18;97976.34;;;21.30;51.84
25947;BME280;13745;51.470;9.894;2023-03-24T11:40:14;97985.66;;;22.42;50.78
25947;BME280;13745;51.470;9.894;2023-03-24T11:43:00;98003.69;;;22.58;50.96
25947;BME280;13745;51.470;9.894;2023-03-24T11:45:55;98025.72;;;22.26;50.57
25947;BME280;13745;51.470;9.894;2023-03-24T11:48:46;98046.59;;;21.86;50.45
25947;BME280;13745;51.470;9.894;2023-03-24T11:51:36;98057.69;;;21.46;50.87
25947;BME280;13745;51.470;9.894;2023-03-24T11:54:25;98074.91;;;21.06;51.16
25947;BME280;13745;51.470;9.894;2023-03-24T11:57:14;98090.66;;;20.72;51.66
25947;BME280;13745;51.470;9.894;2023-03-24T12:00:05;98070.72;;;20.45;52.13
25947;BME280;13745;51.470;9.894;2023-03-24T12:06:23;98074.38;;;20.67;52.53
25947;BME280;13745;51.470;9.894;2023-03-24T12:09:20;98051.69;;;21.22;51.99
25947;BME280;13745;51.470;9.894;2023-03-24T12:12:19;98042.97;;;21.33;51.65
25947;BME280;13745;51.470;9.894;2023-03-24T12:15:30;98024.13;;;22.03;51.02
25947;BME280;13745;51.470;9.894;2023-03-24T12:18:33;98001.06;;;22.05;50.98
25947;BME280;13745;51.470;9.894;2023-03-24T12:21:35;98009.19;;;23.17;49.80
25947;BME280;13745;51.470;9.894;2023-03-24T12:24:32;98056.47;;;24.30;48.30
25947;BME280;13745;51.470;9.894;2023-03-24T12:27:32;98041.13;;;24.24;48.03
25947;BME280;13745;51.470;9.894;2023-03-24T12:30:28;98000.72;;;24.22;47.36
25947;BME280;13745;51.470;9.894;2023-03-24T12:33:29;98007.16;;;24.09;47.10
25947;BME280;13745;51.470;9.894;2023-03-24T12:36:38;98023.28;;;24.06;46.76
25947;BME280;13745;51.470;9.894;2023-03-24T12:39:28;98021.63;;;24.05;47.09
25947;BME280;13745;51.470;9.894;2023-03-24T12:42:15;98018.16;;;24.05;46.54
25947;BME280;13745;51.470;9.894;2023-03-24T12:45:24;98023.28;;;24.06;47.13
25947;BME280;13745;51.470;9.894;2023-03-24T12:48:23;98022.06;;;24.10;46.60
25947;BME280;13745;51.470;9.894;2023-03-24T12:51:20;98020.78;;;24.15;46.11
25947;BME280;13745;51.470;9.894;2023-03-24T12:54:23;98019.25;;;24.22;45.56
25947;BME280;13745;51.470;9.894;2023-03-24T12:57:15;98015.38;;;24.26;46.06
25947;BME280;13745;51.470;9.894;2023-03-24T13:00:03;98001.97;;;24.27;45.58
25947;BME280;13745;51.470;9.894;2023-03-24T13:02:56;98005.03;;;24.23;45.17
25947;BME280;13745;51.470;9.894;2023-03-24T13:05:45;98006.72;;;24.04;44.03
25947;BME280;13745;51.470;9.894;2023-03-24T13:08:36;98009.91;;;23.79;44.45
25947;BME280;13745;51.470;9.894;2023-03-24T13:11:32;98009.97;;;23.58;44.73
25947;BME280;13745;51.470;9.894;2023-03-24T13:14:24;98009.78;;;23.40;44.33
25947;BME280;13745;51.470;9.894;2023-03-24T13:17:15;98001.13;;;23.29;44.53
25947;BME280;13745;51.470;9.894;2023-03-24T13:20:05;98015.34;;;23.27;44.17
25947;BME280;13745;51.470;9.894;2023-03-24T13:22:54;98007.38;;;23.18;44.30
25947;BME280;13745;51.470;9.894;2023-03-24T13:25:44;98016.94;;;23.09;44.23
25947;BME280;13745;51.470;9.894;2023-03-24T13:28:40;98012.69;;;22.97;44.30
25947;BME280;13745;51.470;9.894;2023-03-24T13:31:31;98007.28;;;22.78;44.70
25947;BME280;13745;51.470;9.894;2023-03-24T13:34:24;98007.06;;;22.60;45.05
25947;BME280;13745;51.470;9.894;2023-03-24T13:37:13;98006.03;;;22.51;45.67
25947;BME280;13745;51.470;9.894;2023-03-24T13:40:05;98006.97;;;22.50;45.38
25947;BME280;13745;51.470;9.894;2023-03-24T13:42:55;98019.22;;;22.51;45.98
25947;BME280;13745;51.470;9.894;2023-03-24T13:45:44;98009.41;;;22.42;45.73
25947;BME280;13745;51.470;9.894;2023-03-24T13:48:34;98009.34;;;22.32;45.41
25947;BME280;13745;51.470;9.894;2023-03-24T13:51:23;98002.72;;;22.38;45.94
25947;BME280;13745;51.470;9.894;2023-03-24T13:54:13;97997.63;;;22.46;45.85
25947;BME280;13745;51.470;9.894;2023-03-24T13:57:02;98002.72;;;22.38;45.58
25947;BME280;13745;51.470;9.894;2023-03-24T14:00:02;98002.94;;;22.46;45.19
25947;BME280;13745;51.470;9.894;2023-03-24T14:03:11;98005.19;;;22.92;45.40
25947;BME280;13745;51.470;9.894;2023-03-24T14:05:58;97996.47;;;23.51;44.50
25947;BME280;13745;51.470;9.894;2023-03-24T14:08:55;98002.81;;;24.18;44.49
25947;BME280;13745;51.470;9.894;2023-03-24T14:12:06;98004.97;;;24.81;42.38
25947;BME280;13745;51.470;9.894;2023-03-24T14:15:12;98008.44;;;25.28;40.99
25947;BME280;13745;51.470;9.894;2023-03-24T14:18:15;98011.47;;;25.06;40.77
25947;BME280;13745;51.470;9.894;2023-03-24T14:21:02;98007.13;;;24.58;40.87
25947;BME280;13745;51.470;9.894;2023-03-24T14:23:48;98007.41;;;24.16;40.31
25947;BME280;13745;51.470;9.894;2023-03-24T14:26:35;98001.69;;;23.82;40.95
25947;BME280;13745;51.470;9.894;2023-03-24T14:29:40;98006.78;;;23.54;41.32
25947;BME280;13745;51.470;9.894;2023-03-24T14:32:36;97996.69;;;23.29;41.52
25947;BME280;13745;51.470;9.894;2023-03-24T14:35:29;97992.41;;;23.07;41.81
25947;BME280;13745;51.470;9.894;2023-03-24T14:38:21;98006.00;;;22.93;41.42
25947;BME280;13745;51.470;9.894;2023-03-24T14:41:12;98008.56;;;22.83;41.94
25947;BME280;13745;51.470;9.894;2023-03-24T14:43:58;98008.91;;;22.69;41.37
25947;BME280;13745;51.470;9.894;2023-03-24T14:46:45;98010.72;;;22.48;41.41
25947;BME280;13745;51.470;9.894;2023-03-24T14:49:33;98014.69;;;22.21;41.82
25947;BME280;13745;51.470;9.894;2023-03-24T14:52:22;98014.88;;;21.97;41.63
25947;BME280;13745;51.470;9.894;2023-03-24T14:55:10;98012.78;;;21.80;42.02
25947;BME280;13745;51.470;9.894;2023-03-24T14:57:59;98014.16;;;21.63;41.83
25947;BME280;13745;51.470;9.894;2023-03-24T15:00:47;98001.22;;;21.49;41.88
25947;BME280;13745;51.470;9.894;2023-03-24T15:03:40;98004.13;;;21.35;42.13
25947;BME280;13745;51.470;9.894;2023-03-24T15:06:28;98003.16;;;21.24;42.66
25947;BME280;13745;51.470;9.894;2023-03-24T15:09:16;97995.97;;;21.15;43.05
25947;BME280;13745;51.470;9.894;2023-03-24T15:12:01;97995.84;;;21.06;42.60
25947;BME280;13745;51.470;9.894;2023-03-24T15:14:46;97989.97;;;20.91;42.76
25947;BME280;13745;51.470;9.894;2023-03-24T15:17:32;98003.03;;;20.81;42.83
25947;BME280;13745;51.470;9.894;2023-03-24T15:20:22;97998.47;;;20.72;42.95
25947;BME280;13745;51.470;9.894;2023-03-24T15:23:15;97997.41;;;20.63;43.28